Time;durP1;ratioP1;P1;durP2;ratioP2;P2;SDS_P1;SDS_P2;PMS_P1;PMS_P2;Temp;Humidity;BMP_temperature;BMP_pressure;BME280_temperature;BME280_humidity;BME280_pressure;Samples;Min_cycle;Max_cycle;Signal;HPM_P1;HPM_P2
2022/03/14 00:03:53;;;;;;;10.23;7.17;;;7.40;16.40;;;;;;10311866;28;20231;-75
2022/03/14 00:08:58;;;;;;;8.30;7.40;;;7.30;16.50;;;;;;10305445;28;20228;-75
2022/03/14 00:14:07;;;;;;;7.63;6.93;;;7.20;16.60;;;;;;10306702;28;20235;-75
2022/03/14 00:19:11;;;;;;;8.17;7.30;;;7.20;16.50;;;;;;10308922;28;20231;-75
2022/03/14 00:24:16;;;;;;;7.10;6.37;;;7.10;16.40;;;;;;10306643;28;20246;-75
2022/03/14 00:29:20;;;;;;;8.07;7.27;;;7.10;16.70;;;;;;10313816;28;20238;-74
2022/03/14 00:34:23;;;;;;;7.53;6.83;;;7.00;16.70;;;;;;10309076;28;20242;-75
2022/03/14 00:39:27;;;;;;;7.73;6.60;;;6.90;16.70;;;;;;10316240;28;20237;-75
2022/03/14 00:44:31;;;;;;;6.60;5.93;;;6.80;16.70;;;;;;10319494;28;20235;-74
2022/03/14 00:49:34;;;;;;;7.97;7.17;;;6.70;16.80;;;;;;10318321;28;20285;-75
2022/03/14 00:54:43;;;;;;;8.63;6.90;;;6.60;17.10;;;;;;10311653;28;20266;-75
2022/03/14 00:59:46;;;;;;;7.00;6.30;;;6.50;17.10;;;;;;10314893;28;20700;-75
2022/03/14 01:04:49;;;;;;;7.23;6.60;;;6.30;16.90;;;;;;10318222;28;20684;-75
2022/03/14 01:09:54;;;;;;;7.53;6.73;;;6.20;16.90;;;;;;10313099;28;20289;-75
2022/03/14 01:14:57;;;;;;;6.67;6.07;;;6.10;16.80;;;;;;10319086;28;20236;-75
2022/03/14 01:20:00;;;;;;;7.93;6.90;;;6.10;16.80;;;;;;10316096;28;20231;-75
2022/03/14 01:25:06;;;;;;;8.63;6.77;;;6.10;17.20;;;;;;10313456;28;20230;-74
2022/03/14 01:30:10;;;;;;;8.33;7.47;;;6.10;17.60;;;;;;10310817;28;20223;-75
2022/03/14 01:35:17;;;;;;;8.20;7.40;;;6.10;17.50;;;;;;10314884;28;20264;-74
2022/03/14 01:40:22;;;;;;;7.37;6.67;;;6.00;17.40;;;;;;10312499;28;20281;-74
2022/03/14 01:45:25;;;;;;;7.30;6.60;;;6.00;17.50;;;;;;10313549;28;20235;-75
2022/03/14 01:50:28;;;;;;;7.97;7.10;;;5.90;17.30;;;;;;10315069;28;20222;-74
2022/03/14 01:55:34;;;;;;;8.40;7.50;;;5.90;17.60;;;;;;10310725;28;20235;-75
2022/03/14 02:00:37;;;;;;;7.73;6.93;;;5.80;17.80;;;;;;10313582;28;20231;-75
2022/03/14 02:05:41;;;;;;;8.20;7.23;;;5.80;17.70;;;;;;10314569;28;20903;-75
2022/03/14 02:10:46;;;;;;;8.37;7.57;;;5.70;17.60;;;;;;10313595;28;20608;-75
2022/03/14 02:15:49;;;;;;;8.07;7.00;;;5.50;17.90;;;;;;10309829;28;20231;-74
2022/03/14 02:20:54;;;;;;;8.37;7.57;;;5.50;17.80;;;;;;10307994;28;20244;-74
2022/03/14 02:25:57;;;;;;;9.10;7.47;;;5.40;18.10;;;;;;10312459;28;20892;-74
2022/03/14 02:31:03;;;;;;;7.40;6.67;;;5.30;17.80;;;;;;10311504;28;20239;-75
2022/03/14 02:36:08;;;;;;;6.53;5.83;;;5.30;18.30;;;;;;10310778;28;20293;-74
2022/03/14 02:41:11;;;;;;;8.80;8.00;;;5.20;18.30;;;;;;10309280;28;20230;-74
2022/03/14 02:46:15;;;;;;;9.23;7.90;;;5.20;18.30;;;;;;10317611;28;20241;-74
2022/03/14 02:51:20;;;;;;;7.60;6.80;;;5.20;18.40;;;;;;10317061;28;20231;-74
2022/03/14 02:56:23;;;;;;;9.67;7.83;;;5.20;18.50;;;;;;10310394;28;20606;-75
2022/03/14 03:01:27;;;;;;;8.00;7.20;;;5.10;18.50;;;;;;10320829;28;20718;-74
2022/03/14 03:06:33;;;;;;;8.20;7.07;;;5.10;18.60;;;;;;10315760;28;20230;-74
2022/03/14 03:11:36;;;;;;;8.00;7.20;;;5.00;18.90;;;;;;10311774;28;20227;-74
2022/03/14 03:16:40;;;;;;;9.83;7.73;;;4.90;18.80;;;;;;10309335;28;20234;-74
2022/03/14 03:21:44;;;;;;;8.10;7.20;;;4.80;18.70;;;;;;10313752;28;20327;-74
2022/03/14 03:26:47;;;;;;;8.10;7.33;;;4.70;19.10;;;;;;10308043;28;20231;-74
2022/03/14 03:31:51;;;;;;;8.03;7.30;;;4.70;19.10;;;;;;10304012;28;20231;-75
2022/03/14 03:36:55;;;;;;;9.60;7.50;;;4.70;19.10;;;;;;10308320;28;20602;-74
2022/03/14 03:41:58;;;;;;;8.17;6.90;;;4.70;19.50;;;;;;10312712;28;20727;-74
2022/03/14 03:47:02;;;;;;;8.50;7.60;;;4.80;19.30;;;;;;10305750;28;20310;-73
2022/03/14 03:52:07;;;;;;;9.03;7.47;;;4.80;19.40;;;;;;10310858;28;20235;-73
2022/03/14 03:57:10;;;;;;;9.40;8.40;;;4.80;19.70;;;;;;10310084;28;20588;-73
2022/03/14 04:02:19;;;;;;;9.63;7.83;;;4.80;19.50;;;;;;10309268;28;20609;-73
2022/03/14 04:07:26;;;;;;;8.70;7.77;;;4.90;19.40;;;;;;10312705;28;20242;-74
2022/03/14 04:12:29;;;;;;;11.13;7.80;;;4.90;19.70;;;;;;10312279;28;20871;-73
2022/03/14 04:17:33;;;;;;;8.70;7.80;;;4.70;19.50;;;;;;10317230;28;20237;-74
2022/03/14 04:22:38;;;;;;;9.17;7.90;;;4.70;19.60;;;;;;10317795;28;20243;-74
2022/03/14 04:27:41;;;;;;;9.87;8.33;;;4.70;21.00;;;;;;10320696;28;20269;-74
2022/03/14 04:32:45;;;;;;;10.50;9.07;;;5.00;21.10;;;;;;10313965;28;20241;-74
2022/03/14 04:37:49;;;;;;;12.00;9.40;;;5.40;21.50;;;;;;10314170;28;20719;-74
2022/03/14 04:42:53;;;;;;;10.57;9.53;;;5.80;21.60;;;;;;10321598;28;20230;-75
2022/03/14 04:47:56;;;;;;;11.07;9.83;;;6.30;21.10;;;;;;10320275;28;20231;-74
2022/03/14 04:53:00;;;;;;;10.13;8.87;;;6.60;21.10;;;;;;10321767;28;20238;-74
2022/03/14 04:58:04;;;;;;;11.20;9.70;;;6.80;20.70;;;;;;10320790;28;20223;-75
2022/03/14 05:03:08;;;;;;;12.30;9.33;;;7.00;20.50;;;;;;10329329;28;20265;-74
2022/03/14 05:08:13;;;;;;;12.57;10.43;;;7.20;20.80;;;;;;10325797;28;20242;-75
2022/03/14 05:13:17;;;;;;;11.83;10.53;;;7.30;21.60;;;;;;10320811;28;20232;-75
2022/03/14 05:18:20;;;;;;;10.87;9.63;;;7.50;21.40;;;;;;10327699;28;20230;-75
2022/03/14 05:23:26;;;;;;;10.63;9.53;;;7.70;21.20;;;;;;10326830;28;20238;-76
2022/03/14 05:28:29;;;;;;;12.20;9.90;;;7.90;21.30;;;;;;10321388;28;20234;-75
2022/03/14 05:33:32;;;;;;;10.53;9.53;;;8.00;21.30;;;;;;10324949;28;20770;-76
2022/03/14 05:38:37;;;;;;;10.80;9.70;;;8.10;20.90;;;;;;10328702;28;20678;-75
2022/03/14 05:43:40;;;;;;;10.40;9.40;;;8.20;21.00;;;;;;10333408;28;20616;-75
2022/03/14 05:48:43;;;;;;;10.03;9.03;;;8.20;20.80;;;;;;10336927;28;20231;-76
2022/03/14 05:53:48;;;;;;;10.93;9.83;;;8.30;20.70;;;;;;10339310;28;20598;-77
2022/03/14 05:58:51;;;;;;;13.37;11.20;;;8.30;21.00;;;;;;10326994;28;20227;-78
2022/03/14 06:03:54;;;;;;;10.77;9.30;;;8.20;20.70;;;;;;10308708;28;20250;-77
2022/03/14 06:08:59;;;;;;;10.77;9.67;;;8.20;20.60;;;;;;10305579;28;20220;-77
2022/03/14 06:14:02;;;;;;;13.60;12.20;;;8.20;21.00;;;;;;10320500;28;20227;-76
2022/03/14 06:19:06;;;;;;;14.50;11.87;;;8.20;21.10;;;;;;10312841;28;20230;-76
2022/03/14 06:24:10;;;;;;;12.90;11.60;;;8.20;21.10;;;;;;10313217;28;20235;-77
2022/03/14 06:29:14;;;;;;;12.40;11.10;;;8.20;21.40;;;;;;10324611;28;20241;-76
2022/03/14 06:34:17;;;;;;;14.67;12.20;;;8.20;21.10;;;;;;10321409;28;20281;-77
2022/03/14 06:39:21;;;;;;;13.23;10.70;;;8.20;21.10;;;;;;10322552;28;20242;-77
2022/03/14 06:44:25;;;;;;;12.57;11.13;;;8.20;21.30;;;;;;10329362;28;20239;-77
2022/03/14 06:49:32;;;;;;;12.87;11.13;;;8.20;21.20;;;;;;10323759;28;20234;-77
2022/03/14 06:54:37;;;;;;;10.87;9.83;;;8.30;21.10;;;;;;10322332;28;20238;-77
2022/03/14 06:59:41;;;;;;;13.20;10.97;;;8.30;21.50;;;;;;10324085;28;20234;-77
2022/03/14 07:04:44;;;;;;;12.73;10.40;;;8.30;21.40;;;;;;10322357;28;20238;-77
2022/03/14 07:09:49;;;;;;;10.43;9.33;;;8.40;21.40;;;;;;10332695;28;20235;-77
2022/03/14 07:14:52;;;;;;;15.43;13.83;;;8.40;21.60;;;;;;10326283;28;20231;-77
2022/03/14 07:19:56;;;;;;;18.07;13.63;;;8.40;21.50;;;;;;10328793;28;20223;-77
2022/03/14 07:25:01;;;;;;;14.90;13.30;;;8.40;21.70;;;;;;10330246;28;20223;-77
2022/03/14 07:30:06;;;;;;;12.90;11.57;;;8.50;21.90;;;;;;10325480;28;20232;-78
2022/03/14 07:35:10;;;;;;;13.40;12.00;;;8.50;21.80;;;;;;10328530;28;20219;-77
2022/03/14 07:40:16;;;;;;;14.43;11.60;;;8.60;22.10;;;;;;10326890;28;20241;-77
2022/03/14 07:45:24;;;;;;;12.37;11.17;;;8.70;22.40;;;;;;10327940;28;20662;-77
2022/03/14 07:50:29;;;;;;;14.17;11.17;;;8.70;22.50;;;;;;10325999;28;20791;-77
2022/03/14 07:55:33;;;;;;;12.20;10.80;;;8.80;22.60;;;;;;10331374;28;20240;-77
2022/03/14 08:00:36;;;;;;;12.40;11.00;;;8.90;22.80;;;;;;10316822;28;20230;-77
2022/03/14 08:05:40;;;;;;;11.27;10.10;;;9.00;22.50;;;;;;10317379;28;21007;-77
2022/03/14 08:10:46;;;;;;;12.63;11.37;;;9.10;22.50;;;;;;10313325;28;20237;-77
2022/03/14 08:15:49;;;;;;;13.97;12.50;;;9.20;23.40;;;;;;10322306;28;20227;-77
2022/03/14 08:20:57;;;;;;;12.43;10.73;;;9.40;23.90;;;;;;10318962;28;20711;-77
2022/03/14 08:26:01;;;;;;;10.47;9.47;;;9.70;25.00;;;;;;10324522;28;20324;-78
2022/03/14 08:31:05;;;;;;;10.70;8.83;;;10.10;25.20;;;;;;10319364;28;20235;-77
2022/03/14 08:36:09;;;;;;;9.77;8.77;;;10.50;25.00;;;;;;10314749;28;20674;-78
2022/03/14 08:41:15;;;;;;;10.50;9.50;;;10.90;24.70;;;;;;10320066;28;20248;-78
2022/03/14 08:46:19;;;;;;;11.43;10.23;;;11.30;24.80;;;;;;10324365;28;20251;-78
2022/03/14 08:51:22;;;;;;;9.90;8.90;;;11.60;24.40;;;;;;10317484;28;20235;-78
2022/03/14 08:56:27;;;;;;;10.43;8.77;;;11.90;24.20;;;;;;10321987;28;20239;-79
2022/03/14 09:01:30;;;;;;;9.70;8.73;;;12.10;24.50;;;;;;10335602;28;20227;-79
2022/03/14 09:06:35;;;;;;;9.60;8.63;;;12.40;24.20;;;;;;10335501;28;20226;-79
2022/03/14 09:11:39;;;;;;;9.97;7.90;;;12.60;24.20;;;;;;10327992;28;20237;-80
2022/03/14 09:16:44;;;;;;;7.77;7.07;;;12.90;24.80;;;;;;10327428;28;20227;-79
2022/03/14 09:21:47;;;;;;;7.97;7.07;;;13.20;24.40;;;;;;10334190;28;20230;-78
2022/03/14 09:26:55;;;;;;;8.47;7.67;;;13.40;25.10;;;;;;10338846;28;20694;-78
2022/03/14 09:31:59;;;;;;;8.23;7.43;;;13.50;24.60;;;;;;10338167;28;20310;-78
2022/03/14 09:37:02;;;;;;;6.87;6.20;;;13.70;24.20;;;;;;10335011;28;20231;-79
2022/03/14 09:42:11;;;;;;;6.83;6.23;;;13.90;24.40;;;;;;10339970;28;20242;-79
2022/03/14 09:47:15;;;;;;;6.30;5.70;;;14.00;25.20;;;;;;10326488;28;20358;-80
2022/03/14 09:52:19;;;;;;;6.40;5.80;;;14.10;24.40;;;;;;10328584;28;20736;-80
2022/03/14 09:57:24;;;;;;;6.60;6.00;;;14.10;24.40;;;;;;10334971;28;20690;-80
2022/03/14 10:02:29;;;;;;;5.20;4.70;;;14.20;24.50;;;;;;10332189;28;20233;-79
2022/03/14 10:07:34;;;;;;;4.50;4.03;;;14.40;24.80;;;;;;10329128;28;20564;-79
2022/03/14 10:12:38;;;;;;;4.07;3.77;;;14.60;24.40;;;;;;10334266;28;20242;-79
2022/03/14 10:17:43;;;;;;;3.33;3.13;;;14.70;24.50;;;;;;10329599;28;20314;-79
2022/03/14 10:22:47;;;;;;;3.70;3.10;;;14.80;24.10;;;;;;10332381;28;20223;-78
2022/03/14 10:27:55;;;;;;;3.10;2.90;;;14.80;24.00;;;;;;10328361;28;20318;-78
2022/03/14 10:33:03;;;;;;;3.17;2.97;;;14.90;24.30;;;;;;10329194;28;20239;-79
2022/03/14 10:38:08;;;;;;;4.27;3.20;;;14.90;24.20;;;;;;10320177;28;20574;-78
2022/03/14 10:43:24;;;;;;;2.80;2.60;;;15.00;24.10;;;;;;10317626;28;20246;-78
2022/03/14 10:48:35;;;;;;;2.80;2.60;;;15.10;24.90;;;;;;10321438;28;20749;-78
2022/03/14 10:53:42;;;;;;;2.80;2.60;;;15.30;24.80;;;;;;10324799;28;20329;-78
2022/03/14 10:58:46;;;;;;;1.90;1.80;;;15.50;24.30;;;;;;10322642;28;20244;-78
2022/03/14 11:03:50;;;;;;;1.50;1.40;;;15.70;23.60;;;;;;10321245;28;20244;-79
2022/03/14 11:08:53;;;;;;;1.33;1.23;;;15.90;23.30;;;;;;10329851;28;20584;-79
2022/03/14 11:13:57;;;;;;;1.50;1.40;;;16.00;23.10;;;;;;10327311;28;20314;-79
2022/03/14 11:19:02;;;;;;;3.50;1.50;;;16.10;22.70;;;;;;10327903;28;20236;-78
2022/03/14 11:24:06;;;;;;;1.33;1.23;;;16.10;22.70;;;;;;10325755;28;20242;-79
2022/03/14 11:29:12;;;;;;;1.13;1.10;;;16.10;22.80;;;;;;10327915;28;20238;-79
2022/03/14 11:34:16;;;;;;;0.97;0.97;;;16.20;22.70;;;;;;10333209;28;20259;-79
2022/03/14 11:39:21;;;;;;;1.03;1.03;;;16.20;22.70;;;;;;10325550;28;20629;-79
2022/03/14 11:44:27;;;;;;;1.10;1.10;;;16.10;22.70;;;;;;10330092;28;20227;-78
2022/03/14 11:49:31;;;;;;;2.00;1.20;;;16.10;22.70;;;;;;10331879;28;20234;-79
2022/03/14 11:54:40;;;;;;;0.80;0.80;;;16.00;22.60;;;;;;10323240;28;20653;-78
2022/03/14 11:59:44;;;;;;;0.97;0.97;;;16.00;22.60;;;;;;10308082;28;20239;-79
2022/03/14 12:05:00;;;;;;;0.70;0.70;;;16.00;22.60;;;;;;10320307;28;20234;-79
2022/03/14 12:10:27;;;;;;;0.80;0.80;;;16.10;22.90;;;;;;10320239;28;20229;-79
2022/03/14 12:15:42;;;;;;;0.73;0.73;;;16.10;22.70;;;;;;10319778;28;20226;-80
2022/03/14 12:20:48;;;;;;;0.80;0.80;;;16.10;23.20;;;;;;10318920;28;20250;-80
2022/03/14 12:25:51;;;;;;;0.77;0.77;;;16.20;22.70;;;;;;10331435;28;20226;-80
2022/03/14 12:31:00;;;;;;;0.80;0.80;;;16.20;22.70;;;;;;10327301;28;20233;-79
2022/03/14 12:36:34;;;;;;;1.00;1.00;;;16.30;22.80;;;;;;10331123;28;20230;-79
2022/03/14 12:41:38;;;;;;;0.93;0.80;;;16.50;23.00;;;;;;10283055;28;20230;-79
2022/03/14 12:46:44;;;;;;;1.60;0.80;;;16.70;22.10;;;;;;10324125;28;20230;-79
2022/03/14 12:51:48;;;;;;;0.70;0.70;;;16.90;21.60;;;;;;10330934;28;20824;-79
2022/03/14 12:56:51;;;;;;;2.33;0.77;;;16.90;21.40;;;;;;10327247;28;20243;-76
2022/03/14 13:01:55;;;;;;;0.67;0.67;;;16.90;20.80;;;;;;10314238;28;20234;-77
2022/03/14 13:07:03;;;;;;;0.70;0.60;;;17.00;20.80;;;;;;10340014;28;20676;-78
2022/03/14 13:12:22;;;;;;;0.50;0.50;;;17.00;20.60;;;;;;10323331;28;20234;-79
2022/03/14 13:17:27;;;;;;;1.90;0.70;;;17.00;20.80;;;;;;10325853;28;20243;-79
2022/03/14 13:22:30;;;;;;;0.70;0.70;;;17.20;20.70;;;;;;10329138;28;20233;-79
2022/03/14 13:27:39;;;;;;;0.70;0.70;;;17.30;20.50;;;;;;10319627;28;20310;-77
2022/03/14 13:32:43;;;;;;;0.80;0.80;;;17.50;20.50;;;;;;10331830;28;20239;-79
2022/03/14 13:37:48;;;;;;;0.63;0.63;;;17.70;20.20;;;;;;10332611;28;20746;-78
2022/03/14 13:42:51;;;;;;;1.00;1.00;;;17.70;19.60;;;;;;10328072;28;20243;-78
2022/03/14 13:47:57;;;;;;;2.23;0.90;;;17.70;19.60;;;;;;10332952;28;20703;-79
2022/03/14 13:53:01;;;;;;;0.70;0.70;;;17.60;19.40;;;;;;10337660;28;20318;-79
2022/03/14 13:58:04;;;;;;;2.17;0.70;;;17.70;19.50;;;;;;10324747;28;20234;-78
2022/03/14 14:03:09;;;;;;;0.70;0.70;;;17.80;19.60;;;;;;10321474;28;20238;-77
2022/03/14 14:08:12;;;;;;;0.60;0.60;;;17.80;19.40;;;;;;10304493;28;20233;-77
2022/03/14 14:13:15;;;;;;;0.70;0.70;;;17.80;19.30;;;;;;10315998;28;20286;-77
2022/03/14 14:18:22;;;;;;;0.87;0.70;;;17.90;19.10;;;;;;10313850;28;20230;-78
2022/03/14 14:23:27;;;;;;;0.63;0.60;;;17.90;18.60;;;;;;10320954;28;20639;-77
2022/03/14 14:28:41;;;;;;;0.70;0.60;;;17.90;18.80;;;;;;10325133;28;20314;-77
2022/03/14 14:33:46;;;;;;;0.70;0.70;;;17.90;18.60;;;;;;10322197;28;20269;-77
2022/03/14 14:38:49;;;;;;;0.83;0.70;;;17.80;18.50;;;;;;10319018;28;20263;-77
2022/03/14 14:43:57;;;;;;;0.80;0.73;;;17.80;18.80;;;;;;10315045;28;20328;-77
2022/03/14 14:49:02;;;;;;;0.70;0.70;;;17.70;18.50;;;;;;10322663;28;20241;-77
2022/03/14 14:54:05;;;;;;;0.70;0.70;;;17.70;18.40;;;;;;10321888;28;20318;-77
2022/03/14 14:59:08;;;;;;;0.63;0.63;;;17.70;18.90;;;;;;10319531;28;20239;-76
2022/03/14 15:04:13;;;;;;;0.97;0.60;;;17.80;18.60;;;;;;10314166;28;20267;-79
2022/03/14 15:09:17;;;;;;;0.50;0.50;;;17.80;19.10;;;;;;10312452;28;20633;-76
2022/03/14 15:14:21;;;;;;;0.70;0.70;;;17.80;18.80;;;;;;10316629;28;20238;-75
2022/03/14 15:19:26;;;;;;;0.70;0.70;;;17.90;18.70;;;;;;10308556;28;20247;-76
2022/03/14 15:24:30;;;;;;;0.70;0.70;;;17.90;18.20;;;;;;10308130;28;20239;-75
2022/03/14 15:29:33;;;;;;;0.87;0.80;;;17.90;18.30;;;;;;10313209;28;20234;-77
2022/03/14 15:34:38;;;;;;;0.70;0.70;;;17.90;18.30;;;;;;10308748;28;20238;-77
2022/03/14 15:39:41;;;;;;;0.80;0.80;;;17.90;17.90;;;;;;10319846;28;20243;-77
2022/03/14 15:44:47;;;;;;;1.03;0.73;;;17.90;18.00;;;;;;10310066;28;20254;-77
2022/03/14 15:49:51;;;;;;;0.70;0.70;;;17.90;17.40;;;;;;10319641;28;20243;-76
2022/03/14 15:54:54;;;;;;;0.80;0.80;;;17.80;17.30;;;;;;10316842;28;20591;-76
2022/03/14 15:59:59;;;;;;;0.83;0.80;;;17.80;17.50;;;;;;10322558;28;20711;-75
2022/03/14 16:05:09;;;;;;;2.53;0.90;;;17.70;17.60;;;;;;10331415;28;20674;-76
2022/03/14 16:10:13;;;;;;;0.87;0.63;;;17.70;17.20;;;;;;10322562;28;20230;-78
2022/03/14 16:15:16;;;;;;;0.77;0.77;;;17.60;17.20;;;;;;10321238;28;20230;-77
2022/03/14 16:20:21;;;;;;;1.10;0.70;;;17.60;17.40;;;;;;10329523;28;21006;-77
2022/03/14 16:25:24;;;;;;;0.80;0.80;;;17.60;17.40;;;;;;10324144;28;20753;-77
2022/03/14 16:30:28;;;;;;;1.90;0.80;;;17.60;17.70;;;;;;10323399;28;20775;-76
2022/03/14 16:35:33;;;;;;;1.00;0.70;;;17.60;17.50;;;;;;10326613;28;20231;-77
2022/03/14 16:40:41;;;;;;;1.07;0.80;;;17.50;17.40;;;;;;10324798;28;20322;-76
2022/03/14 16:45:44;;;;;;;1.90;0.70;;;17.50;17.40;;;;;;10325130;28;20327;-77
2022/03/14 16:50:49;;;;;;;0.80;0.80;;;17.40;17.40;;;;;;10322403;28;20231;-77
2022/03/14 16:55:53;;;;;;;0.60;0.60;;;17.30;17.20;;;;;;10322638;28;20245;-78
2022/03/14 17:00:56;;;;;;;4.27;1.50;;;17.30;17.40;;;;;;10326488;28;20237;-78
2022/03/14 17:06:01;;;;;;;8.47;2.10;;;17.20;17.50;;;;;;10330237;28;20285;-78
2022/03/14 17:11:04;;;;;;;9.37;2.53;;;17.20;17.70;;;;;;10322993;28;20230;-78
2022/03/14 17:16:08;;;;;;;8.40;4.10;;;17.10;17.70;;;;;;10323195;28;20257;-78
2022/03/14 17:21:13;;;;;;;6.60;4.90;;;17.00;17.80;;;;;;10332617;28;20322;-78
2022/03/14 17:26:16;;;;;;;9.03;5.27;;;16.90;17.90;;;;;;10340575;28;20613;-78
2022/03/14 17:31:20;;;;;;;5.10;4.40;;;16.90;18.00;;;;;;10327552;28;20230;-78
2022/03/14 17:36:25;;;;;;;5.83;4.70;;;16.80;18.10;;;;;;10336260;28;20235;-78
2022/03/14 17:41:28;;;;;;;4.80;4.30;;;16.70;18.10;;;;;;10332103;28;20242;-78
2022/03/14 17:46:32;;;;;;;6.30;3.70;;;16.50;17.80;;;;;;10332627;28;20310;-78
2022/03/14 17:51:37;;;;;;;3.07;2.77;;;16.40;18.00;;;;;;10292262;28;1154360;-78
2022/03/14 17:56:40;;;;;;;3.97;3.50;;;16.20;18.00;;;;;;10336850;28;20230;-78
2022/03/14 18:01:44;;;;;;;4.63;2.70;;;16.10;18.00;;;;;;10340687;28;20251;-78
2022/03/14 18:06:49;;;;;;;4.63;2.97;;;16.00;18.20;;;;;;10338356;28;20251;-78
2022/03/14 18:11:52;;;;;;;1.90;1.80;;;15.80;18.00;;;;;;10334190;28;20227;-78
2022/03/14 18:16:55;;;;;;;2.03;1.87;;;15.60;18.00;;;;;;10335187;28;20227;-78
2022/03/14 18:22:00;;;;;;;2.23;2.10;;;15.50;18.10;;;;;;10335962;28;20240;-78
2022/03/14 18:27:04;;;;;;;3.40;2.43;;;15.30;18.20;;;;;;10340829;28;20235;-78
2022/03/14 18:32:08;;;;;;;5.13;4.63;;;15.10;18.30;;;;;;10333755;28;20239;-78
2022/03/14 18:37:13;;;;;;;5.90;4.00;;;14.90;18.40;;;;;;10334128;28;20239;-77
2022/03/14 18:42:16;;;;;;;5.13;4.37;;;14.70;18.40;;;;;;10339731;28;20366;-78
2022/03/14 18:47:19;;;;;;;4.93;4.40;;;14.60;18.40;;;;;;10337000;28;20235;-78
2022/03/14 18:52:24;;;;;;;5.90;5.17;;;14.50;18.60;;;;;;10333433;28;20246;-78
2022/03/14 18:57:28;;;;;;;7.20;5.37;;;14.50;18.70;;;;;;10332138;28;20235;-77
2022/03/14 19:02:31;;;;;;;6.20;5.60;;;14.30;18.50;;;;;;10329926;28;20243;-77
2022/03/14 19:07:36;;;;;;;7.37;6.13;;;14.10;18.70;;;;;;10322633;28;20231;-77
2022/03/14 19:12:40;;;;;;;7.57;6.67;;;14.00;18.70;;;;;;10322685;28;20253;-77
2022/03/14 19:17:43;;;;;;;7.77;6.33;;;13.80;18.70;;;;;;10325989;28;20322;-77
2022/03/14 19:22:48;;;;;;;10.87;7.00;;;13.50;18.50;;;;;;10309243;28;20235;-76
2022/03/14 19:27:52;;;;;;;8.40;7.30;;;13.30;18.80;;;;;;10314983;28;20223;-76
2022/03/14 19:32:55;;;;;;;7.63;6.93;;;13.00;18.70;;;;;;10312672;28;20742;-77
2022/03/14 19:38:05;;;;;;;8.73;5.90;;;12.70;18.80;;;;;;10314975;28;20446;-75
2022/03/14 19:43:09;;;;;;;7.77;5.13;;;12.30;19.10;;;;;;10320525;28;20241;-75
2022/03/14 19:48:12;;;;;;;9.10;6.10;;;12.20;19.30;;;;;;10318201;28;20309;-76
2022/03/14 19:53:17;;;;;;;6.57;5.67;;;12.00;19.30;;;;;;10309940;28;20249;-77
2022/03/14 19:58:24;;;;;;;7.70;6.40;;;11.80;19.60;;;;;;10316432;28;20230;-75
2022/03/14 20:03:28;;;;;;;7.43;6.63;;;11.60;19.60;;;;;;10292754;28;20242;-75
2022/03/14 20:08:37;;;;;;;10.07;6.73;;;11.40;19.50;;;;;;10308338;28;20238;-76
2022/03/14 20:13:40;;;;;;;7.50;6.70;;;11.10;19.70;;;;;;10314839;28;20234;-77
2022/03/14 20:18:45;;;;;;;8.33;7.13;;;10.90;19.60;;;;;;10312781;28;20339;-79
2022/03/14 20:23:50;;;;;;;11.57;8.70;;;10.80;19.90;;;;;;10314032;28;20246;-76
2022/03/14 20:28:53;;;;;;;25.43;17.67;;;10.80;20.20;;;;;;10318583;28;21049;-78
2022/03/14 20:33:57;;;;;;;13.37;9.70;;;10.70;19.90;;;;;;10326269;28;20239;-78
2022/03/14 20:39:02;;;;;;;11.00;6.50;;;10.40;19.90;;;;;;10330329;28;20231;-77
2022/03/14 20:44:06;;;;;;;9.20;6.07;;;10.20;20.40;;;;;;10329717;28;20604;-79
2022/03/14 20:49:09;;;;;;;9.03;6.60;;;10.10;20.30;;;;;;10324877;28;20223;-77
2022/03/14 20:54:13;;;;;;;7.30;5.97;;;10.00;20.30;;;;;;10326728;28;20263;-76
2022/03/14 20:59:17;;;;;;;10.07;7.13;;;9.80;21.30;;;;;;10314164;28;20241;-77
2022/03/14 21:04:20;;;;;;;8.50;6.53;;;9.60;21.40;;;;;;10330533;28;20239;-76
2022/03/14 21:09:25;;;;;;;8.37;6.80;;;9.60;21.50;;;;;;10331913;28;20234;-78
2022/03/14 21:14:30;;;;;;;8.80;7.07;;;9.50;21.60;;;;;;10319675;28;20274;-77
2022/03/14 21:19:34;;;;;;;9.60;7.73;;;9.50;21.60;;;;;;10331145;28;20321;-77
2022/03/14 21:24:39;;;;;;;8.50;6.93;;;9.50;21.60;;;;;;10334836;28;20689;-76
2022/03/14 21:29:43;;;;;;;11.27;7.87;;;9.40;21.90;;;;;;10322156;28;20234;-77
2022/03/14 21:34:47;;;;;;;7.67;6.67;;;9.40;21.80;;;;;;10324424;28;20243;-77
2022/03/14 21:39:52;;;;;;;8.57;7.67;;;9.40;21.60;;;;;;10319617;28;20571;-76
2022/03/14 21:44:55;;;;;;;9.23;6.47;;;9.30;21.90;;;;;;10328250;28;20231;-78
2022/03/14 21:49:59;;;;;;;11.17;7.83;;;9.30;21.80;;;;;;10329724;28;20703;-77
2022/03/14 21:55:05;;;;;;;7.97;5.13;;;9.30;22.10;;;;;;10333349;28;20236;-76
2022/03/14 22:00:11;;;;;;;6.87;5.53;;;9.30;22.10;;;;;;10330750;28;20238;-77
2022/03/14 22:05:14;;;;;;;7.07;5.70;;;9.30;21.90;;;;;;10325850;28;20854;-77
2022/03/14 22:10:21;;;;;;;6.37;5.33;;;9.30;21.90;;;;;;10326461;28;20742;-77
2022/03/14 22:15:24;;;;;;;7.27;6.03;;;9.30;22.10;;;;;;10330502;28;20855;-77
2022/03/14 22:20:29;;;;;;;6.57;5.63;;;9.30;22.10;;;;;;10323684;28;20253;-77
2022/03/14 22:25:34;;;;;;;7.20;5.60;;;9.20;22.00;;;;;;10319756;28;20231;-77
2022/03/14 22:30:37;;;;;;;7.97;6.00;;;9.30;22.20;;;;;;10334853;28;20230;-77
2022/03/14 22:35:41;;;;;;;5.93;4.60;;;9.20;22.00;;;;;;10326136;28;20719;-77
2022/03/14 22:40:45;;;;;;;7.07;6.07;;;9.20;22.00;;;;;;10319806;28;20235;-76
2022/03/14 22:45:49;;;;;;;7.40;6.43;;;9.20;22.40;;;;;;10326991;28;20235;-77
2022/03/14 22:50:52;;;;;;;6.87;6.00;;;9.20;22.20;;;;;;10327116;28;20231;-77
2022/03/14 22:55:57;;;;;;;7.60;6.17;;;9.10;22.10;;;;;;10325755;28;20234;-77
2022/03/14 23:01:00;;;;;;;7.37;5.60;;;9.00;22.50;;;;;;10328469;28;20238;-76
2022/03/14 23:06:03;;;;;;;12.40;6.90;;;9.00;22.30;;;;;;10330818;28;20249;-77
2022/03/14 23:16:36;;;;;;;11.87;5.93;;;8.90;22.70;;;;;;10332897;28;20235;-77
2022/03/14 23:21:43;;;;;;;11.97;8.77;;;8.80;22.50;;;;;;10329649;28;20227;-77
2022/03/14 23:26:49;;;;;;;11.90;9.23;;;8.70;22.80;;;;;;10326442;28;20231;-77
2022/03/14 23:31:54;;;;;;;11.47;8.67;;;8.60;22.80;;;;;;10327141;28;20737;-77
2022/03/14 23:36:59;;;;;;;11.67;8.47;;;8.50;22.80;;;;;;10325939;28;20246;-77
2022/03/14 23:42:05;;;;;;;9.10;6.87;;;8.30;22.80;;;;;;10323661;28;20784;-76
2022/03/14 23:47:09;;;;;;;7.10;6.40;;;8.20;23.10;;;;;;10325348;28;20799;-77
2022/03/14 23:52:12;;;;;;;7.93;6.83;;;8.10;23.00;;;;;;10319694;28;20235;-77
2022/03/14 23:57:17;;;;;;;9.10;7.30;;;8.10;23.10;;;;;;10323640;28;20594;-77
